Time;durP1;ratioP1;P1;durP2;ratioP2;P2;SDS_P1;SDS_P2;PMS_P1;PMS_P2;Temp;Humidity;BMP_temperature;BMP_pressure;BME280_temperature;BME280_humidity;BME280_pressure;Samples;Min_cycle;Max_cycle;Signal;HPM_P1;HPM_P2
2021/04/25 00:01:12;;;;;;;1.73;1.63;;;;;;;3.34;69.01;93719.44;5073332;28;20082;-41
2021/04/25 00:03:38;;;;;;;0.90;0.90;;;;;;;3.26;68.20;93714.97;5081985;28;20031;-41
2021/04/25 00:06:04;;;;;;;2.67;1.85;;;;;;;3.22;68.08;93717.19;5077379;28;20021;-41
2021/04/25 00:08:30;;;;;;;0.98;0.77;;;;;;;2.92;69.18;93712.16;5072693;28;20056;-40
2021/04/25 00:10:56;;;;;;;0.45;0.45;;;;;;;3.20;68.82;93709.50;5055049;28;20024;-41
2021/04/25 00:13:21;;;;;;;6.13;1.45;;;;;;;3.33;68.55;93709.00;5072782;28;20055;-40
2021/04/25 00:15:47;;;;;;;1.40;1.40;;;;;;;3.33;67.94;93701.59;5072542;28;20398;-40
2021/04/25 00:18:12;;;;;;;0.60;0.60;;;;;;;3.29;68.63;93703.06;5071608;28;20044;-41
2021/04/25 00:20:38;;;;;;;0.60;0.60;;;;;;;3.23;68.64;93711.22;5072960;28;20461;-41
2021/04/25 00:23:03;;;;;;;1.58;1.55;;;;;;;2.96;69.24;93704.53;5081896;28;20561;-40
2021/04/25 00:25:28;;;;;;;1.30;1.30;;;;;;;2.71;69.67;93704.69;5092251;28;20023;-41
2021/04/25 00:27:54;;;;;;;0.30;0.30;;;;;;;2.71;69.88;93702.72;5092812;28;20055;-40
2021/04/25 00:30:20;;;;;;;0.40;0.40;;;;;;;2.74;69.45;93709.16;5093039;28;20028;-40
2021/04/25 00:32:46;;;;;;;3.10;1.10;;;;;;;2.69;69.57;93705.19;5092937;28;20443;-40
2021/04/25 00:35:13;;;;;;;0.93;0.93;;;;;;;2.77;69.69;93706.19;5092635;28;20039;-41
2021/04/25 00:37:38;;;;;;;0.50;0.50;;;;;;;2.81;69.52;93705.97;5091798;28;20028;-40
2021/04/25 00:40:06;;;;;;;0.55;0.55;;;;;;;2.82;69.66;93704.72;5076523;28;20029;-41
2021/04/25 00:42:31;;;;;;;0.88;0.82;;;;;;;2.74;69.56;93712.66;5072397;28;20029;-40
2021/04/25 00:44:58;;;;;;;0.38;0.38;;;;;;;2.77;68.67;93708.19;5070948;28;20473;-40
2021/04/25 00:47:23;;;;;;;1.65;1.50;;;;;;;2.87;68.67;93709.44;5072293;28;20416;-41
2021/04/25 00:49:49;;;;;;;0.60;0.60;;;;;;;2.82;68.90;93708.19;5071871;28;20027;-41
2021/04/25 00:52:14;;;;;;;0.30;0.30;;;;;;;2.47;69.61;93705.09;5072427;28;20032;-40
2021/04/25 00:54:40;;;;;;;2.63;0.95;;;;;;;2.49;70.44;93702.63;5072401;28;20405;-40
2021/04/25 00:57:07;;;;;;;1.67;1.58;;;;;;;2.67;69.95;93706.91;5072034;28;20539;-40
2021/04/25 00:59:32;;;;;;;0.52;0.52;;;;;;;2.70;69.93;93711.38;5072315;28;20051;-40
2021/04/25 01:01:58;;;;;;;1.17;1.17;;;;;;;2.61;69.72;93706.91;5071872;28;20409;-40
2021/04/25 01:04:23;;;;;;;0.40;0.40;;;;;;;2.45;70.00;93704.13;5071890;28;20036;-41
2021/04/25 01:06:49;;;;;;;1.55;1.45;;;;;;;2.49;70.21;93704.63;5069775;28;20101;-41
2021/04/25 01:09:15;;;;;;;2.53;2.38;;;;;;;2.59;70.24;93706.66;5051835;28;20029;-44
2021/04/25 01:11:41;;;;;;;1.67;1.58;;;;;;;2.56;69.87;93706.88;5033257;28;20059;-39
2021/04/25 01:14:06;;;;;;;0.30;0.30;;;;;;;2.55;69.98;93694.50;5051978;28;20024;-40
2021/04/25 01:16:32;;;;;;;0.30;0.30;;;;;;;2.41;69.26;93696.19;5051802;28;20478;-42
2021/04/25 01:18:57;;;;;;;0.50;0.50;;;;;;;2.15;70.40;93706.47;5058021;28;20111;-41
2021/04/25 01:21:23;;;;;;;0.63;0.63;;;;;;;2.01;71.24;93696.50;5071763;28;20074;-41
2021/04/25 01:23:49;;;;;;;0.30;0.30;;;;;;;2.21;70.93;93694.34;5071858;28;20162;-42
2021/04/25 01:26:15;;;;;;;0.40;0.40;;;;;;;2.31;70.44;93692.19;5067926;28;20641;-43
2021/04/25 01:28:40;;;;;;;0.57;0.57;;;;;;;2.31;69.90;93694.91;5062647;28;20408;-42
2021/04/25 01:31:06;;;;;;;0.47;0.47;;;;;;;2.42;69.62;93697.69;5033495;28;20066;-45
2021/04/25 01:33:33;;;;;;;0.45;0.45;;;;;;;2.24;69.43;93701.56;5059612;28;20029;-40
2021/04/25 01:36:00;;;;;;;0.20;0.20;;;;;;;2.12;70.40;93697.28;5059443;28;20103;-42
2021/04/25 01:38:25;;;;;;;0.22;0.22;;;;;;;1.83;71.39;93702.34;5068496;28;20107;-41
2021/04/25 01:40:51;;;;;;;0.20;0.20;;;;;;;1.67;72.70;93705.72;5070712;28;20033;-42
2021/04/25 01:43:16;;;;;;;0.40;0.40;;;;;;;1.77;72.40;93701.56;5050981;28;20028;-41
2021/04/25 01:45:42;;;;;;;0.30;0.30;;;;;;;1.90;72.27;93702.63;5052371;28;20033;-41
2021/04/25 01:48:10;;;;;;;0.63;0.60;;;;;;;2.11;71.73;93701.25;5052056;28;20051;-43
2021/04/25 01:50:36;;;;;;;0.40;0.40;;;;;;;2.19;72.10;93696.84;5050931;28;20056;-42
2021/04/25 01:53:03;;;;;;;0.40;0.40;;;;;;;2.20;71.37;93695.59;5056560;28;20035;-41
2021/04/25 01:55:30;;;;;;;0.30;0.30;;;;;;;2.21;71.61;93688.91;5060717;28;20111;-42
2021/04/25 01:57:55;;;;;;;0.77;0.77;;;;;;;2.27;71.37;93686.22;5058348;28;20549;-44
2021/04/25 02:00:27;;;;;;;1.50;0.70;;;;;;;1.90;72.10;93691.75;5061471;28;20111;-43
2021/04/25 02:02:54;;;;;;;0.20;0.20;;;;;;;1.77;71.52;93696.13;5060392;28;20039;-42
2021/04/25 02:05:20;;;;;;;0.52;0.52;;;;;;;1.90;71.20;93691.00;5059383;28;20056;-41
2021/04/25 02:07:45;;;;;;;0.20;0.20;;;;;;;2.06;70.53;93690.31;5070820;28;20123;-42
2021/04/25 02:10:12;;;;;;;0.20;0.20;;;;;;;2.12;70.63;93691.84;5079968;28;20021;-42
2021/04/25 02:12:37;;;;;;;2.40;2.20;;;;;;;1.81;71.87;93681.06;5079652;28;20030;-42
2021/04/25 02:15:05;;;;;;;1.15;1.05;;;;;;;1.97;71.98;93688.53;5079843;28;20023;-44
2021/04/25 02:17:31;;;;;;;0.30;0.30;;;;;;;1.91;71.79;93682.34;5062028;28;20029;-42
2021/04/25 02:19:56;;;;;;;0.90;0.90;;;;;;;1.96;71.30;93687.06;5078197;28;20054;-42
2021/04/25 02:22:22;;;;;;;0.98;0.98;;;;;;;2.00;71.46;93684.09;5076899;28;20028;-42
2021/04/25 02:24:47;;;;;;;0.35;0.35;;;;;;;1.72;72.21;93686.69;5079068;28;20024;-41
2021/04/25 02:27:13;;;;;;;1.20;1.10;;;;;;;1.72;72.32;93677.75;5078906;28;20024;-40
2021/04/25 02:29:38;;;;;;;0.30;0.30;;;;;;;1.66;71.98;93666.09;5079274;28;20042;-41
2021/04/25 02:32:04;;;;;;;0.63;0.63;;;;;;;1.78;71.04;93668.41;5081255;28;20008;-40
2021/04/25 02:34:29;;;;;;;0.45;0.45;;;;;;;1.57;71.42;93672.50;5079250;28;20390;-41
2021/04/25 02:36:55;;;;;;;0.30;0.30;;;;;;;1.33;72.76;93672.06;5082084;28;20031;-42
2021/04/25 02:39:20;;;;;;;0.28;0.28;;;;;;;1.35;72.92;93667.66;5079938;28;20047;-40
2021/04/25 02:41:46;;;;;;;1.05;1.05;;;;;;;1.62;72.30;93676.47;5079151;28;20097;-41
2021/04/25 02:44:12;;;;;;;0.38;0.38;;;;;;;1.57;71.84;93669.00;5079282;28;20035;-42
2021/04/25 02:46:37;;;;;;;0.30;0.30;;;;;;;1.33;73.34;93661.94;5090351;28;20028;-42
2021/04/25 02:49:03;;;;;;;0.30;0.30;;;;;;;1.58;72.53;93660.38;5081712;28;20041;-40
2021/04/25 02:51:28;;;;;;;0.40;0.40;;;;;;;1.64;72.57;93669.31;5069698;28;20025;-41
2021/04/25 02:53:54;;;;;;;0.65;0.65;;;;;;;1.72;71.23;93666.88;5070429;28;20063;-42
2021/04/25 02:56:19;;;;;;;1.45;1.35;;;;;;;1.77;71.13;93658.00;5069115;28;20082;-40
2021/04/25 02:58:45;;;;;;;0.40;0.40;;;;;;;1.60;71.50;93651.72;5069498;28;20059;-41
2021/04/25 03:01:10;;;;;;;0.30;0.30;;;;;;;1.44;71.44;93644.94;5069095;28;20140;-42
2021/04/25 03:03:35;;;;;;;1.55;1.50;;;;;;;1.57;71.67;93650.72;5069124;28;20032;-40
2021/04/25 03:06:01;;;;;;;1.65;1.65;;;;;;;1.58;71.04;93643.31;5069116;28;20028;-41
2021/04/25 03:08:26;;;;;;;4.55;1.20;;;;;;;1.42;71.71;93644.69;5068845;28;20048;-42
2021/04/25 03:10:52;;;;;;;1.55;1.35;;;;;;;1.35;71.28;93632.28;5074646;28;20432;-42
2021/04/25 03:13:17;;;;;;;0.63;0.35;;;;;;;1.20;71.86;93626.25;5089211;28;20058;-42
2021/04/25 03:15:43;;;;;;;0.25;0.25;;;;;;;1.37;71.09;93650.81;5089348;28;20078;-42
2021/04/25 03:18:09;;;;;;;1.95;1.85;;;;;;;1.25;71.01;93643.84;5083250;28;20442;-42
2021/04/25 03:20:34;;;;;;;0.25;0.25;;;;;;;1.19;70.99;93646.50;5069031;28;20105;-44
2021/04/25 03:23:00;;;;;;;0.52;0.50;;;;;;;1.05;72.10;93641.97;5086405;28;20456;-39
2021/04/25 03:25:25;;;;;;;1.25;1.15;;;;;;;1.03;72.51;93649.09;5089364;28;20032;-39
2021/04/25 03:27:52;;;;;;;0.30;0.30;;;;;;;1.09;71.80;93650.63;5089049;28;20553;-39
2021/04/25 03:30:18;;;;;;;0.20;0.20;;;;;;;1.20;72.21;93653.44;5089286;28;20020;-39
2021/04/25 03:32:44;;;;;;;0.70;0.70;;;;;;;1.12;73.15;93655.13;5089310;28;20456;-42
2021/04/25 03:35:13;;;;;;;0.47;0.47;;;;;;;1.08;72.93;93651.88;5089187;28;20051;-42
2021/04/25 03:37:39;;;;;;;0.63;0.63;;;;;;;1.25;72.64;93657.44;5089330;28;20031;-43
2021/04/25 03:40:07;;;;;;;1.77;1.67;;;;;;;1.36;71.59;93652.81;5089301;28;20028;-43
2021/04/25 03:42:32;;;;;;;0.40;0.40;;;;;;;1.37;72.04;93662.47;5088935;28;20040;-42
2021/04/25 03:44:58;;;;;;;1.27;0.75;;;;;;;1.13;71.88;93653.88;5088963;28;20055;-45
2021/04/25 03:47:23;;;;;;;0.93;0.93;;;;;;;1.20;72.39;93658.13;5088925;28;20028;-42
2021/04/25 03:49:49;;;;;;;1.10;1.10;;;;;;;1.10;72.97;93668.44;5074428;28;20025;-44
2021/04/25 03:52:14;;;;;;;0.20;0.20;;;;;;;1.21;72.64;93660.34;5068957;28;20025;-43
2021/04/25 03:54:40;;;;;;;0.57;0.57;;;;;;;1.26;72.07;93656.94;5068643;28;20043;-42
2021/04/25 03:57:06;;;;;;;0.82;0.82;;;;;;;1.18;73.01;93649.72;5068630;28;20055;-43
2021/04/25 03:59:33;;;;;;;0.30;0.30;;;;;;;1.29;73.25;93661.44;5068674;28;20029;-39
2021/04/25 04:01:58;;;;;;;1.40;0.65;;;;;;;1.44;72.40;93655.84;5071853;28;20036;-39
2021/04/25 04:04:23;;;;;;;1.77;1.67;;;;;;;1.58;71.93;93665.06;5091771;28;20023;-42
2021/04/25 04:06:49;;;;;;;0.77;0.60;;;;;;;1.66;71.16;93663.38;5092737;28;20382;-42
2021/04/25 04:09:15;;;;;;;1.35;1.25;;;;;;;1.76;70.58;93667.41;5073185;28;20585;-42
2021/04/25 04:11:41;;;;;;;1.50;1.50;;;;;;;1.57;71.05;93667.03;5072661;28;20091;-41
2021/04/25 04:14:06;;;;;;;0.93;0.90;;;;;;;1.65;71.02;93672.78;5072269;28;20512;-43
2021/04/25 04:16:32;;;;;;;1.55;1.45;;;;;;;1.93;70.16;93662.78;5072197;28;20037;-41
2021/04/25 04:18:57;;;;;;;1.63;1.52;;;;;;;2.10;70.22;93671.78;5072109;28;20055;-39
2021/04/25 04:21:24;;;;;;;0.63;0.60;;;;;;;2.03;69.99;93672.25;5075833;28;20077;-41
2021/04/25 04:23:49;;;;;;;0.52;0.52;;;;;;;2.21;69.75;93674.53;5092464;28;20020;-40
2021/04/25 04:26:15;;;;;;;4.47;1.27;;;;;;;2.49;68.11;93674.66;5092199;28;20065;-41
2021/04/25 04:28:41;;;;;;;3.97;3.63;;;;;;;2.72;67.26;93685.13;5092042;28;20064;-40
2021/04/25 04:31:06;;;;;;;5.32;2.45;;;;;;;3.11;67.19;93676.25;5092282;28;20155;-41
2021/04/25 04:33:32;;;;;;;1.23;1.13;;;;;;;3.54;64.88;93680.22;5091903;28;20511;-41
2021/04/25 04:35:57;;;;;;;1.90;1.80;;;;;;;3.53;65.80;93686.94;5092193;28;20112;-40
2021/04/25 04:38:23;;;;;;;3.05;2.33;;;;;;;3.97;64.01;93678.66;5092055;28;20024;-41
2021/04/25 04:40:48;;;;;;;1.15;1.15;;;;;;;4.80;61.22;93680.34;5091785;28;20381;-41
2021/04/25 04:43:14;;;;;;;3.00;2.88;;;;;;;5.39;59.34;93681.19;5091165;28;20024;-40
2021/04/25 04:45:39;;;;;;;1.15;1.15;;;;;;;5.45;59.31;93686.63;5091952;28;20022;-40
2021/04/25 04:48:05;;;;;;;5.40;2.83;;;;;;;5.23;59.27;93681.31;5091887;28;20026;-40
2021/04/25 04:50:30;;;;;;;1.88;1.77;;;;;;;5.27;59.53;93684.50;5071604;28;20017;-40
2021/04/25 04:52:56;;;;;;;1.42;1.35;;;;;;;5.15;59.91;93686.59;5071304;28;20024;-43
2021/04/25 04:55:21;;;;;;;2.60;2.42;;;;;;;5.25;59.88;93685.03;5071293;28;20028;-42
2021/04/25 04:57:47;;;;;;;2.65;2.50;;;;;;;5.25;59.66;93687.00;5079568;28;20027;-41
2021/04/25 05:00:13;;;;;;;5.72;5.28;;;;;;;5.23;59.90;93687.53;5079210;28;20477;-42
2021/04/25 05:02:39;;;;;;;2.47;2.33;;;;;;;5.13;60.05;93675.38;5081641;28;20465;-42
2021/04/25 05:05:06;;;;;;;3.63;3.33;;;;;;;5.01;61.67;93681.44;5080641;28;20162;-41
2021/04/25 05:07:32;;;;;;;5.80;4.03;;;;;;;4.87;62.47;93683.28;5078876;28;20444;-41
2021/04/25 05:09:57;;;;;;;4.30;1.95;;;;;;;4.93;63.10;93689.47;5080313;28;20024;-42
2021/04/25 05:12:23;;;;;;;3.67;1.13;;;;;;;5.09;63.16;93688.59;5078445;28;20026;-40
2021/04/25 05:14:48;;;;;;;0.75;0.68;;;;;;;5.16;63.66;93688.06;5079822;28;20039;-40
2021/04/25 05:17:15;;;;;;;0.30;0.30;;;;;;;5.36;63.67;93695.16;5077881;28;20451;-41
2021/04/25 05:19:41;;;;;;;2.15;1.70;;;;;;;5.59;63.69;93693.72;5076827;28;20500;-42
2021/04/25 05:22:06;;;;;;;0.65;0.65;;;;;;;5.64;63.73;93689.44;5063153;28;20031;-42
2021/04/25 05:24:32;;;;;;;0.90;0.90;;;;;;;5.59;63.68;93677.28;5073379;28;20024;-42
2021/04/25 05:26:57;;;;;;;2.15;1.52;;;;;;;5.67;64.26;93686.44;5070917;28;20017;-43
2021/04/25 05:29:23;;;;;;;0.40;0.40;;;;;;;5.70;65.11;93690.88;5056147;28;20024;-42
2021/04/25 05:31:48;;;;;;;1.00;1.00;;;;;;;5.75;65.25;93687.38;5084280;28;20017;-42
2021/04/25 05:34:13;;;;;;;1.27;1.27;;;;;;;5.92;65.42;93692.72;5070443;28;20017;-41
2021/04/25 05:36:39;;;;;;;3.55;2.28;;;;;;;6.17;65.63;93688.00;5070691;28;20028;-42
2021/04/25 05:39:06;;;;;;;10.90;4.55;;;;;;;6.58;65.16;93683.03;5070768;28;20532;-42
2021/04/25 05:41:31;;;;;;;4.65;4.22;;;;;;;6.99;63.86;93691.75;5069973;28;20031;-42
2021/04/25 05:43:57;;;;;;;7.30;4.22;;;;;;;7.50;62.25;93687.00;5075133;28;20021;-42
2021/04/25 05:46:22;;;;;;;3.85;3.40;;;;;;;8.16;60.23;93682.41;5070379;28;20413;-41
2021/04/25 05:48:49;;;;;;;2.30;2.20;;;;;;;8.80;58.52;93678.19;5075695;28;20030;-44
2021/04/25 05:51:15;;;;;;;1.73;1.60;;;;;;;9.46;56.37;93689.06;5080454;28;20020;-42
2021/04/25 05:53:40;;;;;;;4.72;4.10;;;;;;;9.92;54.86;93655.84;5080487;28;20090;-39
2021/04/25 05:56:06;;;;;;;2.92;2.72;;;;;;;10.80;53.03;93679.66;5080667;28;20487;-39
2021/04/25 05:58:31;;;;;;;2.60;2.40;;;;;;;11.32;51.45;93681.16;5059910;28;20020;-40
2021/04/25 06:00:57;;;;;;;2.40;2.30;;;;;;;11.55;51.49;93675.66;5078135;28;20081;-42
2021/04/25 06:03:22;;;;;;;2.95;2.67;;;;;;;11.77;51.18;93673.00;5080291;28;20020;-40
2021/04/25 06:05:48;;;;;;;2.13;2.00;;;;;;;11.84;50.79;93675.03;5078313;28;20021;-40
2021/04/25 06:08:13;;;;;;;1.58;1.52;;;;;;;12.06;50.08;93668.75;5079864;28;20044;-40
2021/04/25 06:10:39;;;;;;;1.35;1.23;;;;;;;12.45;48.61;93675.75;5079892;28;20024;-40
2021/04/25 06:13:04;;;;;;;1.73;1.35;;;;;;;13.15;47.04;93656.41;5078428;28;20027;-40
2021/04/25 06:15:30;;;;;;;0.45;0.45;;;;;;;14.33;43.79;93668.66;5083873;28;20020;-40
2021/04/25 06:18:00;;;;;;;2.80;1.65;;;;;;;15.65;42.23;93669.69;5085278;28;20580;-41
2021/04/25 06:20:25;;;;;;;1.75;1.65;;;;;;;16.58;39.71;93665.72;5080733;28;20451;-40
2021/04/25 06:22:51;;;;;;;1.58;1.48;;;;;;;17.18;38.40;93655.50;5085067;28;20024;-41
2021/04/25 06:25:16;;;;;;;1.58;1.23;;;;;;;17.85;36.08;93663.84;5079576;28;20012;-40
2021/04/25 06:27:42;;;;;;;1.60;0.80;;;;;;;18.42;30.50;93663.66;5080837;28;20408;-40
2021/04/25 06:30:09;;;;;;;1.35;1.08;;;;;;;18.66;32.21;93664.59;5078793;28;20025;-40
2021/04/25 06:32:35;;;;;;;3.05;1.27;;;;;;;18.17;30.87;93661.25;5080001;28;20027;-41
2021/04/25 06:35:01;;;;;;;1.15;1.15;;;;;;;18.16;32.49;93659.78;5080250;28;20016;-41
2021/04/25 06:37:27;;;;;;;2.20;2.10;;;;;;;18.63;31.56;93660.91;5075627;28;20479;-41
2021/04/25 06:39:53;;;;;;;1.38;1.27;;;;;;;19.41;31.16;93654.22;5070008;28;20029;-41
2021/04/25 06:42:18;;;;;;;0.98;0.93;;;;;;;20.04;27.62;93652.59;5069473;28;20023;-41
2021/04/25 06:44:44;;;;;;;1.08;1.00;;;;;;;20.31;28.02;93655.72;5069995;28;20097;-41
2021/04/25 06:47:09;;;;;;;0.60;0.60;;;;;;;18.89;27.91;93653.56;5069538;28;20063;-42
2021/04/25 06:49:35;;;;;;;0.60;0.47;;;;;;;19.01;29.56;93653.63;5069201;28;20021;-41
2021/04/25 06:52:00;;;;;;;0.35;0.35;;;;;;;19.18;28.29;93642.91;5069428;28;20023;-44
2021/04/25 06:54:26;;;;;;;0.80;0.80;;;;;;;18.84;27.04;93649.75;5069094;28;20024;-41
2021/04/25 06:56:51;;;;;;;0.90;0.75;;;;;;;20.39;27.60;93636.56;5070811;28;20028;-42
2021/04/25 06:59:17;;;;;;;1.65;1.02;;;;;;;22.23;25.67;93628.94;5067010;28;20024;-41
2021/04/25 07:01:42;;;;;;;0.75;0.75;;;;;;;23.85;23.20;93633.03;5078735;28;20032;-41
2021/04/25 07:04:08;;;;;;;0.20;0.20;;;;;;;24.80;22.66;93626.88;5084815;28;20016;-41
2021/04/25 07:06:33;;;;;;;0.82;0.65;;;;;;;25.62;21.39;93631.09;5087338;28;20024;-43
2021/04/25 07:08:59;;;;;;;0.17;0.17;;;;;;;26.50;20.78;93626.13;5067264;28;20431;-41
2021/04/25 07:11:25;;;;;;;0.80;0.80;;;;;;;27.18;18.56;93624.38;5049460;28;20008;-41
2021/04/25 07:13:51;;;;;;;0.15;0.15;;;;;;;27.69;17.47;93622.63;5067466;28;20470;-41
2021/04/25 07:16:16;;;;;;;0.63;0.63;;;;;;;27.92;18.51;93626.16;5059658;28;20020;-42
2021/04/25 07:18:41;;;;;;;2.28;1.02;;;;;;;27.74;17.55;93617.81;5059493;28;20036;-41
2021/04/25 07:21:07;;;;;;;0.45;0.45;;;;;;;28.49;16.49;93629.44;5062449;28;20012;-42
2021/04/25 07:23:32;;;;;;;4.00;1.63;;;;;;;28.52;17.34;93620.28;5055924;28;20025;-41
2021/04/25 07:25:58;;;;;;;1.48;0.57;;;;;;;28.96;16.50;93629.44;5066682;28;20040;-41
2021/04/25 07:28:24;;;;;;;0.65;0.50;;;;;;;28.92;16.95;93611.53;5066902;28;20410;-41
2021/04/25 07:30:51;;;;;;;0.55;0.55;;;;;;;29.65;16.26;93614.25;5066461;28;20135;-41
2021/04/25 07:33:17;;;;;;;0.68;0.65;;;;;;;30.46;15.17;93611.25;5066931;28;20058;-41
2021/04/25 07:35:42;;;;;;;0.52;0.52;;;;;;;30.50;15.07;93608.50;5069401;28;20472;-42
2021/04/25 07:38:09;;;;;;;1.65;0.88;;;;;;;29.90;14.97;93605.69;5070880;28;20024;-42
2021/04/25 07:40:36;;;;;;;1.02;0.90;;;;;;;29.90;16.02;93604.94;5063615;28;20112;-41
2021/04/25 07:43:02;;;;;;;0.63;0.63;;;;;;;28.86;16.02;93597.88;5056357;28;20037;-42
2021/04/25 07:45:27;;;;;;;1.67;0.85;;;;;;;28.83;16.01;93607.00;5059668;28;20021;-41
2021/04/25 07:47:53;;;;;;;0.20;0.20;;;;;;;29.58;15.21;93604.13;5055753;28;20526;-41
2021/04/25 07:50:18;;;;;;;0.93;0.82;;;;;;;30.08;15.88;93594.00;5058743;28;20446;-44
2021/04/25 07:52:44;;;;;;;2.20;0.63;;;;;;;30.78;15.26;93591.28;5058577;28;20033;-42
2021/04/25 07:55:10;;;;;;;0.73;0.70;;;;;;;31.27;14.96;93590.91;5060195;28;20077;-43
2021/04/25 07:57:37;;;;;;;0.77;0.77;;;;;;;31.51;14.43;93591.38;5058972;28;20047;-42
2021/04/25 08:00:11;;;;;;;0.52;0.40;;;;;;;31.31;14.79;93588.09;5059389;28;20025;-42
2021/04/25 08:02:36;;;;;;;1.85;1.15;;;;;;;30.90;14.40;93589.44;5059354;28;20086;-43
2021/04/25 08:05:03;;;;;;;0.80;0.80;;;;;;;30.86;14.00;93577.97;5065715;28;20521;-41
2021/04/25 08:07:29;;;;;;;1.20;0.88;;;;;;;30.94;14.04;93586.69;5063988;28;20051;-41
2021/04/25 08:09:54;;;;;;;0.75;0.30;;;;;;;31.78;13.72;93583.97;5075754;28;20416;-41
2021/04/25 08:12:19;;;;;;;0.65;0.65;;;;;;;31.91;13.92;93582.75;5089328;28;20832;-40
2021/04/25 08:14:45;;;;;;;0.77;0.60;;;;;;;31.28;13.54;93580.91;5082989;28;20629;-41
2021/04/25 08:17:11;;;;;;;0.25;0.25;;;;;;;31.42;12.89;93567.66;5087577;28;20020;-40
2021/04/25 08:19:36;;;;;;;1.95;0.68;;;;;;;30.92;15.68;93575.25;5088851;28;20027;-42
2021/04/25 08:22:01;;;;;;;0.73;0.70;;;;;;;30.94;13.22;93572.41;5074392;28;20091;-40
2021/04/25 08:24:27;;;;;;;1.35;1.17;;;;;;;31.56;14.16;93580.72;5089105;28;20035;-41
2021/04/25 08:26:53;;;;;;;2.50;0.90;;;;;;;32.28;14.13;93576.25;5090169;28;20036;-41
2021/04/25 08:29:18;;;;;;;0.30;0.25;;;;;;;30.86;13.91;93568.66;5090147;28;20015;-40
2021/04/25 08:31:44;;;;;;;0.55;0.55;;;;;;;29.05;15.75;93584.88;5090471;28;20039;-40
2021/04/25 08:34:09;;;;;;;1.58;1.05;;;;;;;29.69;17.71;93568.81;5083441;28;20089;-41
2021/04/25 08:36:35;;;;;;;1.75;0.60;;;;;;;30.34;15.68;93566.13;5090443;28;20123;-43
2021/04/25 08:39:00;;;;;;;0.80;0.40;;;;;;;29.60;16.34;93567.16;5090027;28;20027;-40
2021/04/25 08:41:26;;;;;;;1.05;0.60;;;;;;;28.15;16.76;93566.66;5090228;28;20024;-40
2021/04/25 08:43:52;;;;;;;0.93;0.82;;;;;;;26.85;16.75;93563.72;5090086;28;20032;-40
2021/04/25 08:46:20;;;;;;;2.00;0.70;;;;;;;26.75;17.64;93557.69;5089123;28;20023;-42
2021/04/25 08:48:48;;;;;;;1.10;0.55;;;;;;;28.30;18.04;93562.84;5088975;28;20024;-48
2021/04/25 08:51:13;;;;;;;0.45;0.45;;;;;;;29.67;16.49;93548.84;5089982;28;20028;-46
2021/04/25 08:53:40;;;;;;;2.10;1.30;;;;;;;30.04;15.63;93545.47;5089964;28;20027;-45
2021/04/25 08:56:05;;;;;;;1.50;0.82;;;;;;;29.49;15.23;93548.41;5080571;28;20029;-50
2021/04/25 08:58:33;;;;;;;0.30;0.30;;;;;;;29.32;14.90;93532.31;5077633;28;20034;-47
2021/04/25 09:00:58;;;;;;;0.70;0.30;;;;;;;27.88;16.11;93553.00;5074704;28;20107;-46
2021/04/25 09:03:27;;;;;;;0.47;0.47;;;;;;;28.56;15.74;93542.28;5077703;28;20025;-46
2021/04/25 09:05:54;;;;;;;0.28;0.28;;;;;;;28.56;16.87;93539.44;5077181;28;20055;-45
2021/04/25 09:08:20;;;;;;;0.45;0.30;;;;;;;29.53;13.56;93534.25;5075680;28;20043;-47
2021/04/25 09:10:52;;;;;;;0.10;0.10;;;;;;;30.34;14.29;93536.94;5081943;28;20555;-46
2021/04/25 09:13:24;;;;;;;1.10;0.70;;;;;;;29.77;14.80;93532.03;5088959;28;20086;-47
2021/04/25 09:15:55;;;;;;;0.35;0.35;;;;;;;30.21;16.26;93532.34;5089054;28;20027;-45
2021/04/25 09:18:34;;;;;;;0.38;0.38;;;;;;;30.31;13.07;93533.31;5072016;28;20105;-46
2021/04/25 09:21:07;;;;;;;0.10;0.10;;;;;;;30.23;13.71;93530.25;5078561;28;20067;-44
2021/04/25 09:23:32;;;;;;;0.75;0.57;;;;;;;30.12;13.14;93528.59;5071029;28;20032;-42
2021/04/25 09:26:00;;;;;;;1.20;0.98;;;;;;;29.44;13.29;93527.66;5071156;28;20094;-47
2021/04/25 09:28:27;;;;;;;0.57;0.37;;;;;;;29.79;13.60;93527.13;5070822;28;20443;-47
2021/04/25 09:30:57;;;;;;;0.55;0.40;;;;;;;29.21;15.69;93526.38;5070678;28;20496;-45
2021/04/25 09:33:26;;;;;;;0.50;0.45;;;;;;;28.96;14.55;93515.00;5073579;28;20066;-40
2021/04/25 09:35:51;;;;;;;0.52;0.52;;;;;;;29.48;14.25;93507.09;5070795;28;20036;-41
2021/04/25 09:38:17;;;;;;;0.65;0.65;;;;;;;30.55;15.13;93513.88;5070826;28;20074;-41
2021/04/25 09:40:49;;;;;;;0.40;0.40;;;;;;;31.56;14.12;93500.81;5070724;28;20016;-41
2021/04/25 09:43:18;;;;;;;0.47;0.47;;;;;;;30.99;14.51;93511.19;5070291;28;20046;-41
2021/04/25 09:45:50;;;;;;;0.13;0.13;;;;;;;31.17;12.99;93499.41;5074440;28;20557;-41
2021/04/25 09:48:33;;;;;;;2.35;1.35;;;;;;;29.04;14.42;93503.84;5070218;28;20067;-41
2021/04/25 09:51:16;;;;;;;1.55;0.70;;;;;;;29.23;15.81;93497.25;5076197;28;20029;-43
2021/04/25 09:54:02;;;;;;;1.83;0.47;;;;;;;29.66;16.17;93494.06;5070229;28;20536;-43
2021/04/25 09:56:31;;;;;;;1.55;0.52;;;;;;;31.16;14.56;93487.28;5069668;28;20432;-43
2021/04/25 09:58:56;;;;;;;0.20;0.20;;;;;;;31.53;13.87;93479.38;5080966;28;20127;-43
2021/04/25 10:01:42;;;;;;;0.60;0.43;;;;;;;32.66;12.62;93485.31;5087889;28;20177;-43
2021/04/25 10:04:30;;;;;;;0.55;0.55;;;;;;;33.09;12.03;93469.38;5086193;28;20031;-43
2021/04/25 10:06:57;;;;;;;6.20;1.95;;;;;;;34.00;11.77;93465.13;5079396;28;20058;-43
2021/04/25 10:09:23;;;;;;;20.20;1.00;;;;;;;34.46;10.08;93461.84;5078615;28;20028;-42
2021/04/25 10:11:52;;;;;;;0.50;0.50;;;;;;;33.46;11.95;93459.00;5078508;28;20403;-44
2021/04/25 10:14:18;;;;;;;1.02;0.70;;;;;;;31.99;12.54;93457.97;5076933;28;20043;-44
2021/04/25 10:16:43;;;;;;;0.55;0.52;;;;;;;31.46;11.76;93450.00;5078132;28;20016;-43
2021/04/25 10:19:13;;;;;;;0.25;0.25;;;;;;;29.77;14.72;93444.53;5078713;28;20027;-43
2021/04/25 10:21:39;;;;;;;2.78;0.80;;;;;;;28.74;15.47;93451.91;5077940;28;20040;-43
2021/04/25 10:24:08;;;;;;;0.60;0.52;;;;;;;28.09;15.71;93452.91;5079171;28;20077;-42
2021/04/25 10:26:38;;;;;;;0.85;0.35;;;;;;;28.62;15.06;93443.03;5079701;28;20048;-42
2021/04/25 10:29:10;;;;;;;0.73;0.68;;;;;;;27.06;16.33;93446.13;5078085;28;20115;-42
2021/04/25 10:31:37;;;;;;;0.40;0.35;;;;;;;25.46;19.03;93447.38;5059850;28;20024;-43
2021/04/25 10:34:23;;;;;;;0.50;0.50;;;;;;;23.28;20.29;93448.50;5059637;28;20032;-42
2021/04/25 10:36:50;;;;;;;0.93;0.68;;;;;;;23.28;19.81;93448.50;5077667;28;20032;-42
2021/04/25 10:39:50;;;;;;;0.60;0.60;;;;;;;21.55;21.55;93439.72;5081490;28;20408;-42
2021/04/25 10:42:28;;;;;;;0.55;0.55;;;;;;;22.30;20.97;93447.91;5081520;28;20114;-42
2021/04/25 10:45:03;;;;;;;1.25;0.65;;;;;;;22.24;22.00;93444.06;5074906;28;20098;-42
2021/04/25 10:47:36;;;;;;;1.38;0.90;;;;;;;21.77;22.74;93441.63;5072317;28;20044;-42
2021/04/25 10:50:13;;;;;;;1.13;0.80;;;;;;;21.70;22.94;93437.03;5076351;28;20115;-43
2021/04/25 10:52:40;;;;;;;1.08;0.95;;;;;;;20.75;22.66;93433.91;5077351;28;20025;-42
2021/04/25 10:55:30;;;;;;;0.55;0.55;;;;;;;21.38;23.02;93426.16;5078866;28;20031;-41
2021/04/25 10:58:08;;;;;;;1.33;1.25;;;;;;;22.15;22.00;93434.47;5080312;28;20476;-42
2021/04/25 11:03:09;;;;;;;1.05;0.98;;;;;;;24.79;20.55;93418.56;5077844;28;20464;-44
2021/04/25 11:05:35;;;;;;;0.85;0.70;;;;;;;24.69;18.95;93429.38;5077363;28;20037;-43
2021/04/25 11:08:00;;;;;;;1.10;1.00;;;;;;;24.94;19.99;93429.06;5076571;28;20082;-42
2021/04/25 11:10:47;;;;;;;0.52;0.52;;;;;;;25.86;19.85;93419.94;5081337;28;20029;-44
2021/04/25 11:13:46;;;;;;;0.57;0.45;;;;;;;27.43;18.03;93420.41;5083576;28;20024;-43
2021/04/25 11:16:17;;;;;;;;;;;;;;;27.84;17.79;93422.34;5038208;28;20036;-43
2021/04/25 11:19:05;;;;;;;0.80;0.80;;;;;;;28.35;15.58;93418.88;5082053;28;20002;-43
2021/04/25 11:24:02;;;;;;;3.35;1.20;;;;;;;29.04;17.12;93412.88;5081483;28;20520;-43
2021/04/25 11:26:43;;;;;;;0.88;0.88;;;;;;;28.84;15.95;93418.03;5082186;28;20684;-43
2021/04/25 11:29:25;;;;;;;1.95;0.75;;;;;;;29.00;17.28;93418.47;5080180;28;20041;-42
2021/04/25 11:31:53;;;;;;;1.27;0.95;;;;;;;29.06;17.27;93407.94;5081508;28;20409;-42
2021/04/25 11:34:25;;;;;;;;;;;;;;;28.57;17.38;93413.06;5082783;28;20077;-43
2021/04/25 11:37:03;;;;;;;0.50;0.40;;;;;;;27.70;16.33;93408.47;5080272;28;19911;-43
2021/04/25 11:39:53;;;;;;;0.60;0.50;;;;;;;27.17;17.17;93407.47;5082398;28;20040;-43
2021/04/25 11:42:24;;;;;;;0.45;0.45;;;;;;;27.56;16.94;93410.16;5081071;28;20059;-42
2021/04/25 11:44:50;;;;;;;0.75;0.75;;;;;;;27.08;17.03;93400.84;5080429;28;20724;-42